Time;durP1;ratioP1;P1;durP2;ratioP2;P2;SDS_P1;SDS_P2;PMS_P1;PMS_P2;Temp;Humidity;BMP_temperature;BMP_pressure;BME280_temperature;BME280_humidity;BME280_pressure;Samples;Min_cycle;Max_cycle;Signal;HPM_P1;HPM_P2
2022/12/27 00:00:58;;;;;;;1.20;0.60;;;5.10;99.90;;;;;;5007944;28;20466;-73
2022/12/27 00:03:24;;;;;;;1.10;0.50;;;5.00;99.90;;;;;;5011280;28;20636;-73
2022/12/27 00:05:49;;;;;;;1.60;0.70;;;5.00;99.90;;;;;;5001686;28;20300;-73
2022/12/27 00:08:15;;;;;;;1.20;0.53;;;4.90;99.90;;;;;;5004347;28;20599;-73
2022/12/27 00:10:41;;;;;;;1.77;0.70;;;4.90;99.90;;;;;;5006145;28;20194;-73
2022/12/27 00:13:06;;;;;;;1.10;0.60;;;4.80;99.90;;;;;;5013305;28;20182;-73
2022/12/27 00:15:34;;;;;;;1.60;0.70;;;4.80;99.90;;;;;;5015461;28;20203;-73
2022/12/27 00:17:59;;;;;;;1.50;0.90;;;4.80;99.90;;;;;;5013188;28;20262;-73
2022/12/27 00:20:25;;;;;;;1.87;0.90;;;4.70;99.90;;;;;;5012768;28;21133;-73
2022/12/27 00:22:50;;;;;;;1.30;0.80;;;4.70;99.90;;;;;;5005472;28;20828;-73
2022/12/27 00:25:16;;;;;;;1.97;1.10;;;4.60;99.90;;;;;;5005284;28;20190;-73
2022/12/27 00:27:42;;;;;;;3.60;1.10;;;4.60;99.90;;;;;;5020260;28;20214;-73
2022/12/27 00:30:08;;;;;;;1.67;0.77;;;4.50;99.90;;;;;;5018189;28;20199;-73
2022/12/27 00:32:34;;;;;;;1.70;0.70;;;4.50;99.90;;;;;;5031434;28;20190;-73
2022/12/27 00:34:59;;;;;;;1.90;1.03;;;4.50;99.90;;;;;;5016753;28;20425;-73
2022/12/27 00:37:25;;;;;;;2.67;1.23;;;4.40;99.90;;;;;;5024702;28;20627;-73
2022/12/27 00:39:50;;;;;;;3.83;1.17;;;4.40;99.90;;;;;;5021786;28;20210;-73
2022/12/27 00:42:16;;;;;;;3.30;1.07;;;4.30;99.90;;;;;;5026085;28;20187;-73
2022/12/27 00:44:42;;;;;;;4.70;1.40;;;4.30;99.90;;;;;;5030624;28;20340;-73
2022/12/27 00:47:08;;;;;;;10.57;4.20;;;4.20;99.90;;;;;;5035301;28;20189;-73
2022/12/27 00:49:34;;;;;;;4.20;1.90;;;4.10;99.90;;;;;;5035327;28;20174;-73
2022/12/27 00:52:00;;;;;;;9.50;3.77;;;4.10;99.90;;;;;;5034894;28;20428;-73
2022/12/27 00:54:25;;;;;;;7.40;3.03;;;4.00;99.90;;;;;;5021406;28;20901;-73
2022/12/27 00:56:51;;;;;;;8.07;3.87;;;4.00;99.90;;;;;;5034930;28;20272;-73
2022/12/27 00:59:16;;;;;;;6.60;0.90;;;3.90;99.90;;;;;;5018276;28;20214;-73
2022/12/27 01:01:42;;;;;;;4.47;1.80;;;3.80;99.90;;;;;;5024142;28;20189;-73
2022/12/27 01:04:11;;;;;;;10.90;5.33;;;3.80;99.90;;;;;;5035010;28;20187;-73
2022/12/27 01:06:36;;;;;;;16.03;6.30;;;3.80;99.90;;;;;;5035230;28;20324;-73
2022/12/27 01:09:03;;;;;;;3.23;2.03;;;3.70;99.90;;;;;;5031760;28;20945;-73
2022/12/27 01:11:29;;;;;;;1.50;1.00;;;3.70;99.90;;;;;;5024029;28;20521;-74
2022/12/27 01:14:00;;;;;;;7.17;1.73;;;3.60;99.90;;;;;;5029139;28;20433;-73
2022/12/27 01:16:27;;;;;;;7.73;3.70;;;3.60;99.90;;;;;;5015582;28;20417;-74
2022/12/27 01:18:54;;;;;;;7.80;2.23;;;3.50;99.90;;;;;;5016132;28;20414;-73
2022/12/27 01:21:21;;;;;;;7.03;3.03;;;3.50;99.90;;;;;;5015294;28;20785;-73
2022/12/27 01:23:47;;;;;;;44.23;18.17;;;3.40;99.90;;;;;;5017809;28;20898;-73
2022/12/27 01:26:19;;;;;;;13.50;6.40;;;3.30;99.90;;;;;;5034704;28;20429;-73
2022/12/27 01:28:46;;;;;;;32.90;12.30;;;3.30;99.90;;;;;;5030157;28;20461;-73
2022/12/27 01:31:15;;;;;;;43.13;15.93;;;3.20;99.90;;;;;;5025723;28;20425;-73
2022/12/27 01:33:41;;;;;;;9.00;4.83;;;3.10;99.90;;;;;;5020774;28;20433;-73
2022/12/27 01:36:16;;;;;;;9.80;3.83;;;3.10;99.90;;;;;;5024746;28;20433;-74
2022/12/27 01:38:42;;;;;;;7.47;2.63;;;3.00;99.90;;;;;;5033920;28;20201;-73
2022/12/27 01:44:48;;;;;;;22.17;10.10;;;2.90;99.90;;;;;;5005836;28;20402;-74
2022/12/27 01:47:48;;;;;;;5.90;2.63;;;2.90;99.90;;;;;;5014133;28;20504;-73
2022/12/27 01:50:21;;;;;;;10.10;4.10;;;2.90;99.90;;;;;;5021143;28;20471;-74
2022/12/27 01:53:12;;;;;;;17.77;7.37;;;2.80;99.90;;;;;;5033680;28;20512;-74
2022/12/27 01:55:49;;;;;;;7.47;4.07;;;2.80;99.90;;;;;;5018800;28;20506;-74
2022/12/27 01:58:22;;;;;;;3.50;1.63;;;2.80;99.90;;;;;;5009174;28;20423;-74
2022/12/27 02:00:50;;;;;;;3.97;1.30;;;2.80;99.90;;;;;;5032349;28;20503;-74
2022/12/27 02:03:30;;;;;;;1.30;0.83;;;2.70;99.90;;;;;;5024812;28;20511;-74
2022/12/27 02:05:58;;;;;;;3.53;1.10;;;2.80;99.90;;;;;;5033893;28;20424;-74
2022/12/27 02:08:43;;;;;;;1.60;0.70;;;2.80;99.90;;;;;;5034282;28;20425;-74
2022/12/27 02:11:09;;;;;;;1.93;1.13;;;2.80;99.90;;;;;;5018511;28;20457;-74
2022/12/27 02:13:38;;;;;;;1.37;0.57;;;2.90;99.90;;;;;;5029759;28;20467;-74
2022/12/27 02:16:16;;;;;;;1.60;0.77;;;2.90;99.90;;;;;;5002651;28;20418;-74
2022/12/27 02:18:43;;;;;;;3.10;0.80;;;2.90;99.90;;;;;;5027375;28;20433;-74
2022/12/27 02:21:21;;;;;;;2.80;0.83;;;2.80;99.90;;;;;;5021870;28;21171;-74
2022/12/27 02:24:25;;;;;;;1.30;0.50;;;2.80;99.90;;;;;;5032792;28;20425;-74
2022/12/27 02:27:05;;;;;;;2.40;0.90;;;2.70;99.90;;;;;;5011002;28;20483;-74
2022/12/27 02:29:49;;;;;;;5.07;0.53;;;2.70;99.90;;;;;;5033232;28;20511;-74
2022/12/27 02:32:36;;;;;;;2.67;1.40;;;2.70;99.90;;;;;;5032881;28;20487;-74
2022/12/27 02:35:23;;;;;;;1.83;0.80;;;2.70;99.90;;;;;;5031058;28;20448;-74
2022/12/27 02:38:12;;;;;;;2.03;0.90;;;2.70;99.90;;;;;;5013667;28;20417;-74
2022/12/27 02:55:29;;;;;;;1.97;0.90;;;2.30;99.90;;;;;;5013971;28;20436;-74
2022/12/27 02:58:08;;;;;;;3.23;0.77;;;2.20;99.90;;;;;;5028183;28;20422;-74
2022/12/27 03:04:27;;;;;;;1.40;0.60;;;2.10;99.90;;;;;;5005009;28;20405;-74
2022/12/27 03:07:13;;;;;;;1.10;0.53;;;2.00;99.90;;;;;;4946144;28;20432;-74
2022/12/27 03:15:56;;;;;;;3.20;1.10;;;2.00;99.90;;;;;;5027151;28;20421;-74
2022/12/27 03:18:25;;;;;;;2.93;1.23;;;2.00;99.90;;;;;;5012754;28;20422;-74
2022/12/27 03:26:25;;;;;;;1.60;0.83;;;1.80;99.90;;;;;;5032636;28;20420;-74
2022/12/27 03:34:31;;;;;;;2.63;1.30;;;1.70;99.90;;;;;;5021265;28;20464;-73
2022/12/27 03:40:22;;;;;;;1.63;0.60;;;1.60;99.90;;;;;;5024855;28;20472;-73
2022/12/27 03:43:10;;;;;;;1.50;0.70;;;1.60;99.90;;;;;;5015372;28;20456;-73
2022/12/27 03:49:03;;;;;;;3.83;1.10;;;1.50;99.90;;;;;;5008980;28;20447;-73
2022/12/27 03:51:35;;;;;;;1.77;1.00;;;1.50;99.90;;;;;;5026744;28;20484;-73
2022/12/27 03:54:09;;;;;;;1.60;0.97;;;1.50;99.90;;;;;;5017709;28;20426;-73
2022/12/27 03:56:36;;;;;;;1.30;0.70;;;1.50;99.90;;;;;;5006511;28;20503;-73
2022/12/27 03:59:03;;;;;;;1.93;0.80;;;1.50;99.90;;;;;;5030470;28;20455;-73
2022/12/27 04:01:29;;;;;;;20.97;1.90;;;1.50;99.90;;;;;;5028821;28;20417;-73
2022/12/27 04:03:55;;;;;;;6.10;0.80;;;1.50;99.90;;;;;;5026000;28;20421;-73
2022/12/27 04:06:20;;;;;;;2.73;1.17;;;1.60;99.90;;;;;;5031777;28;20220;-73
2022/12/27 04:36:07;;;;;;;2.60;0.90;;;1.40;99.90;;;;;;5031143;28;20466;-73
2022/12/27 04:38:32;;;;;;;2.60;0.97;;;1.40;99.90;;;;;;5031348;28;20755;-73
2022/12/27 04:55:10;;;;;;;7.60;1.53;;;1.20;99.90;;;;;;4999282;28;20488;-73
2022/12/27 04:57:36;;;;;;;2.20;0.90;;;1.10;99.90;;;;;;5026606;28;20488;-73
2022/12/27 05:02:46;;;;;;;1.47;0.80;;;1.10;99.90;;;;;;5021841;28;20186;-73
2022/12/27 05:05:12;;;;;;;1.50;0.70;;;1.10;99.90;;;;;;5031438;28;20416;-73
2022/12/27 05:15:56;;;;;;;2.03;0.60;;;1.20;99.90;;;;;;5011842;28;20420;-73
2022/12/27 05:18:22;;;;;;;2.60;1.23;;;1.20;99.90;;;;;;5011104;28;20413;-73
2022/12/27 05:20:48;;;;;;;1.10;0.60;;;1.20;99.90;;;;;;5028401;28;20340;-73
2022/12/27 05:25:58;;;;;;;1.40;0.77;;;1.20;99.90;;;;;;5034179;28;20217;-73
2022/12/27 05:28:24;;;;;;;5.03;0.80;;;1.20;99.90;;;;;;5034438;28;20441;-74
2022/12/27 05:30:49;;;;;;;1.43;0.80;;;1.30;99.90;;;;;;5034113;28;20179;-74
2022/12/27 05:33:15;;;;;;;2.03;0.80;;;1.30;99.90;;;;;;5034056;28;20178;-73
2022/12/27 05:35:41;;;;;;;1.40;0.73;;;1.30;99.90;;;;;;5034261;28;20531;-73
2022/12/27 05:38:07;;;;;;;2.03;0.83;;;1.30;99.90;;;;;;5019070;28;20679;-73
2022/12/27 05:40:32;;;;;;;3.00;1.13;;;1.30;99.90;;;;;;5014279;28;20211;-74
2022/12/27 05:43:00;;;;;;;3.50;0.80;;;1.30;99.90;;;;;;5018416;28;20221;-73
2022/12/27 05:45:27;;;;;;;1.93;0.80;;;1.30;99.90;;;;;;5022898;28;20684;-74
2022/12/27 05:47:53;;;;;;;2.50;0.90;;;1.30;99.90;;;;;;5034272;28;20429;-73
2022/12/27 05:50:19;;;;;;;1.70;0.90;;;1.30;99.90;;;;;;5034188;28;20436;-73
2022/12/27 05:52:45;;;;;;;1.37;0.80;;;1.20;99.90;;;;;;5023372;28;20778;-74
2022/12/27 05:55:11;;;;;;;2.23;1.13;;;1.20;99.90;;;;;;5024108;28;20273;-73
2022/12/27 05:57:37;;;;;;;6.93;1.40;;;1.10;99.90;;;;;;5021121;28;20626;-73
2022/12/27 06:00:04;;;;;;;2.80;1.00;;;1.00;99.90;;;;;;5032951;28;20484;-74
2022/12/27 06:02:30;;;;;;;2.40;1.50;;;1.00;99.90;;;;;;5024720;28;20651;-73
2022/12/27 06:04:55;;;;;;;4.07;0.90;;;1.00;99.90;;;;;;5033463;28;20421;-74
2022/12/27 06:07:21;;;;;;;1.83;0.93;;;0.90;99.90;;;;;;5033905;28;20182;-74
2022/12/27 06:09:46;;;;;;;6.60;2.50;;;0.90;99.90;;;;;;5033390;28;20220;-73
2022/12/27 06:12:12;;;;;;;3.43;1.40;;;0.90;99.90;;;;;;5020056;28;20687;-73
2022/12/27 06:14:37;;;;;;;2.13;1.13;;;0.80;99.90;;;;;;5024879;28;20215;-73
2022/12/27 06:17:03;;;;;;;4.90;1.80;;;0.70;99.90;;;;;;5028790;28;20183;-73
2022/12/27 06:19:28;;;;;;;3.73;1.50;;;0.70;99.90;;;;;;5024803;28;20278;-74
2022/12/27 06:21:54;;;;;;;6.13;1.70;;;0.70;99.90;;;;;;5014648;28;20210;-73
2022/12/27 06:24:20;;;;;;;1.50;0.87;;;0.70;99.90;;;;;;5028361;28;20175;-73
2022/12/27 06:26:45;;;;;;;1.57;0.87;;;0.70;99.90;;;;;;5028323;28;20600;-73
2022/12/27 06:29:11;;;;;;;9.70;1.70;;;0.70;99.90;;;;;;5033362;28;20177;-73
2022/12/27 06:31:38;;;;;;;6.13;1.50;;;0.70;99.90;;;;;;5019526;28;20636;-73
2022/12/27 06:34:04;;;;;;;1.80;1.03;;;0.70;99.90;;;;;;5032157;28;20424;-73
2022/12/27 06:36:30;;;;;;;6.20;1.17;;;0.70;99.90;;;;;;5033293;28;20413;-73
2022/12/27 06:38:56;;;;;;;2.67;1.20;;;0.70;99.90;;;;;;5033360;28;20174;-73
2022/12/27 06:41:22;;;;;;;5.03;0.90;;;0.70;99.90;;;;;;5032828;28;20293;-73
2022/12/27 06:43:52;;;;;;;2.70;1.23;;;0.70;99.90;;;;;;5023286;28;20956;-73
2022/12/27 06:46:17;;;;;;;18.53;1.47;;;0.70;99.90;;;;;;5032662;28;20197;-73
2022/12/27 06:48:44;;;;;;;9.23;2.90;;;0.60;99.90;;;;;;5033365;28;20949;-73
2022/12/27 06:51:11;;;;;;;5.67;2.50;;;0.60;99.90;;;;;;5031262;28;20185;-73
2022/12/27 06:53:37;;;;;;;7.33;3.50;;;0.50;99.90;;;;;;5028235;28;20416;-73
2022/12/27 06:56:11;;;;;;;4.97;2.20;;;0.60;99.90;;;;;;5019107;28;20438;-73
2022/12/27 06:58:38;;;;;;;6.70;2.80;;;0.60;99.90;;;;;;5032536;28;20562;-73
2022/12/27 07:01:08;;;;;;;2.63;1.63;;;0.60;99.90;;;;;;5019120;28;20465;-74
2022/12/27 07:03:34;;;;;;;4.03;1.90;;;0.70;99.90;;;;;;5024069;28;20786;-73
2022/12/27 07:06:04;;;;;;;4.63;2.10;;;0.70;99.90;;;;;;5031004;28;20475;-74
2022/12/27 07:08:30;;;;;;;3.83;1.97;;;0.70;99.90;;;;;;5032837;28;20562;-74
2022/12/27 07:11:00;;;;;;;1.80;1.10;;;0.80;99.90;;;;;;5032072;28;20413;-73
2022/12/27 07:13:26;;;;;;;3.20;1.70;;;0.80;99.90;;;;;;5029765;28;20186;-74
2022/12/27 07:15:51;;;;;;;8.93;2.90;;;0.80;99.90;;;;;;5012585;28;20760;-74
2022/12/27 07:18:17;;;;;;;6.97;2.57;;;0.80;99.90;;;;;;5015011;28;20187;-74
2022/12/27 07:20:43;;;;;;;3.77;1.47;;;0.90;99.90;;;;;;5029542;28;20208;-74
2022/12/27 07:23:09;;;;;;;4.17;1.47;;;0.90;99.90;;;;;;5020149;28;20175;-73
2022/12/27 07:25:34;;;;;;;2.37;1.63;;;0.90;99.90;;;;;;5029622;28;20182;-73
2022/12/27 07:28:00;;;;;;;5.63;2.00;;;0.90;99.90;;;;;;5032463;28;20844;-73
2022/12/27 07:30:26;;;;;;;6.43;1.87;;;0.90;99.90;;;;;;5018669;28;20261;-73
2022/12/27 07:32:51;;;;;;;6.93;2.80;;;0.90;99.90;;;;;;5031194;28;20639;-73
2022/12/27 07:35:17;;;;;;;5.00;2.10;;;1.00;99.90;;;;;;5032016;28;20183;-73
2022/12/27 07:37:42;;;;;;;3.90;1.87;;;1.00;99.90;;;;;;5025364;28;20656;-73
2022/12/27 07:40:08;;;;;;;3.00;1.60;;;1.00;99.90;;;;;;5031536;28;20865;-73
2022/12/27 07:42:34;;;;;;;5.00;1.80;;;1.10;99.90;;;;;;5030949;28;20174;-73
2022/12/27 07:44:59;;;;;;;5.80;1.27;;;1.10;99.90;;;;;;5030071;28;20459;-73
2022/12/27 07:47:25;;;;;;;3.40;1.47;;;1.10;99.90;;;;;;5023710;28;20174;-73
2022/12/27 07:49:50;;;;;;;2.23;1.63;;;1.20;99.90;;;;;;5031289;28;20186;-73
2022/12/27 07:52:16;;;;;;;2.53;1.83;;;1.00;99.90;;;;;;5003597;28;20179;-73
2022/12/27 07:54:42;;;;;;;6.90;2.90;;;0.90;99.90;;;;;;5002803;28;20190;-73
2022/12/27 07:57:07;;;;;;;4.27;2.43;;;0.90;99.90;;;;;;5001043;28;20196;-73
2022/12/27 07:59:33;;;;;;;4.73;2.10;;;0.80;99.90;;;;;;5007519;28;20214;-73
2022/12/27 08:02:04;;;;;;;5.17;2.20;;;0.80;99.90;;;;;;5005823;28;20540;-73
2022/12/27 08:04:32;;;;;;;2.30;1.40;;;0.90;99.90;;;;;;5008028;28;20180;-73
2022/12/27 08:07:07;;;;;;;6.23;1.70;;;0.90;99.90;;;;;;5002769;28;20447;-73
2022/12/27 08:09:36;;;;;;;4.97;1.93;;;1.00;99.90;;;;;;5002617;28;20464;-73
2022/12/27 08:12:02;;;;;;;12.33;4.50;;;1.00;99.90;;;;;;5004696;28;20813;-73
2022/12/27 08:14:27;;;;;;;5.53;2.40;;;1.10;99.90;;;;;;5001685;28;20427;-73
2022/12/27 08:17:01;;;;;;;3.13;1.83;;;1.10;99.90;;;;;;5005954;28;20183;-73
2022/12/27 08:19:27;;;;;;;4.60;2.27;;;1.20;99.90;;;;;;5011200;28;20174;-73
2022/12/27 08:21:52;;;;;;;8.20;3.20;;;1.30;99.90;;;;;;5027697;28;20419;-73
2022/12/27 08:24:18;;;;;;;6.40;3.17;;;1.40;99.90;;;;;;5030634;28;20214;-73
2022/12/27 08:26:43;;;;;;;4.90;2.20;;;1.50;99.90;;;;;;5028824;28;20535;-73
2022/12/27 08:29:09;;;;;;;5.73;2.90;;;1.60;99.90;;;;;;5018785;28;20289;-73
2022/12/27 08:31:34;;;;;;;14.20;6.23;;;1.70;99.90;;;;;;5011200;28;20175;-73
2022/12/27 08:34:02;;;;;;;9.50;4.30;;;1.90;99.90;;;;;;5004892;28;20186;-73
2022/12/27 08:36:27;;;;;;;3.07;1.87;;;1.90;99.90;;;;;;5024356;28;20786;-73
2022/12/27 08:38:54;;;;;;;6.53;3.00;;;1.90;99.90;;;;;;5019118;28;20468;-73
2022/12/27 08:41:20;;;;;;;8.80;2.90;;;2.00;99.90;;;;;;5022545;28;20555;-73
2022/12/27 08:43:46;;;;;;;11.63;2.70;;;2.10;99.90;;;;;;5030398;28;20475;-73
2022/12/27 08:46:12;;;;;;;2.47;1.50;;;2.20;99.90;;;;;;5011222;28;20494;-73
2022/12/27 08:48:38;;;;;;;2.30;1.47;;;2.40;99.90;;;;;;5021876;28;20518;-73
2022/12/27 08:51:04;;;;;;;3.10;1.43;;;2.50;99.90;;;;;;5018401;28;20214;-73
2022/12/27 08:53:30;;;;;;;2.60;1.07;;;2.60;99.90;;;;;;5003763;28;20175;-73
2022/12/27 08:55:56;;;;;;;3.73;1.70;;;2.80;99.90;;;;;;5003226;28;20547;-73
2022/12/27 08:58:22;;;;;;;4.17;1.50;;;2.90;99.90;;;;;;5011570;28;20179;-73
2022/12/27 09:00:49;;;;;;;3.00;1.10;;;3.00;99.90;;;;;;5001498;28;20295;-73
2022/12/27 09:03:18;;;;;;;1.97;1.20;;;3.10;99.90;;;;;;5013523;28;20541;-73
2022/12/27 09:05:43;;;;;;;2.13;0.83;;;3.10;99.90;;;;;;5008333;28;20498;-73
2022/12/27 09:08:10;;;;;;;3.07;1.20;;;3.20;99.90;;;;;;5019136;28;20961;-73
2022/12/27 09:10:35;;;;;;;6.50;1.10;;;3.20;99.90;;;;;;5029776;28;20194;-73
2022/12/27 09:13:01;;;;;;;2.00;1.10;;;3.30;99.90;;;;;;5016061;28;20421;-73
2022/12/27 09:15:27;;;;;;;3.40;1.20;;;3.40;99.90;;;;;;5019813;28;20187;-73
2022/12/27 09:17:52;;;;;;;1.90;1.17;;;3.40;99.90;;;;;;5026704;28;20194;-73
2022/12/27 09:20:18;;;;;;;1.30;0.80;;;3.40;99.90;;;;;;5030110;28;20206;-73
2022/12/27 09:22:44;;;;;;;1.83;0.87;;;3.50;99.90;;;;;;5033539;28;20217;-73
2022/12/27 09:25:09;;;;;;;2.37;1.53;;;3.40;99.90;;;;;;5010940;28;20289;-73
2022/12/27 09:27:36;;;;;;;3.10;1.30;;;3.50;99.90;;;;;;5033960;28;20682;-72
2022/12/27 09:30:04;;;;;;;1.80;0.70;;;3.60;99.90;;;;;;5032452;28;20225;-73
2022/12/27 09:32:30;;;;;;;3.00;1.30;;;3.60;99.90;;;;;;5017581;28;20423;-73
2022/12/27 09:34:55;;;;;;;2.47;1.03;;;3.60;99.90;;;;;;5005597;28;20504;-74
2022/12/27 09:37:21;;;;;;;6.20;1.30;;;3.60;99.90;;;;;;5021549;28;20183;-73
2022/12/27 09:39:47;;;;;;;5.10;1.30;;;3.70;99.90;;;;;;5024075;28;20304;-74
2022/12/27 09:42:41;;;;;;;11.90;1.40;;;3.70;99.90;;;;;;5023088;28;20280;-74
2022/12/27 09:45:20;;;;;;;14.43;1.73;;;3.80;99.90;;;;;;5033543;28;20257;-73
2022/12/27 09:48:01;;;;;;;3.63;0.87;;;3.80;99.90;;;;;;5033529;28;20467;-74
2022/12/27 09:50:36;;;;;;;5.40;1.30;;;3.90;99.90;;;;;;5026059;28;20413;-74
2022/12/27 09:53:20;;;;;;;10.90;1.40;;;4.00;99.90;;;;;;5019182;28;20496;-74
2022/12/27 09:55:50;;;;;;;1.63;1.03;;;4.10;99.90;;;;;;5026564;28;20433;-74
2022/12/27 09:58:44;;;;;;;1.87;0.90;;;4.10;99.90;;;;;;5033760;28;20412;-74
2022/12/27 10:01:18;;;;;;;2.77;1.30;;;4.20;99.90;;;;;;5019700;28;20551;-74
2022/12/27 10:03:44;;;;;;;1.80;1.10;;;4.20;99.90;;;;;;5018415;28;20920;-74
2022/12/27 10:06:31;;;;;;;2.20;0.90;;;4.20;99.90;;;;;;5020127;28;20429;-74
2022/12/27 10:09:41;;;;;;;2.13;0.90;;;4.30;99.90;;;;;;5032640;28;20194;-74
2022/12/27 10:12:37;;;;;;;2.40;0.80;;;4.30;99.90;;;;;;5031274;28;20794;-74
2022/12/27 10:15:02;;;;;;;3.63;0.80;;;4.40;99.90;;;;;;5021085;28;20418;-74
2022/12/27 10:17:47;;;;;;;1.50;0.73;;;4.40;99.90;;;;;;5013072;28;20418;-73
2022/12/27 10:20:21;;;;;;;3.47;0.90;;;4.50;99.90;;;;;;5024772;28;20218;-74
2022/12/27 10:23:10;;;;;;;4.50;0.80;;;4.60;99.90;;;;;;5023986;28;20504;-74
2022/12/27 10:25:38;;;;;;;2.70;0.70;;;4.80;99.90;;;;;;5025203;28;20471;-74
2022/12/27 10:28:29;;;;;;;2.17;0.93;;;5.00;99.90;;;;;;5025890;28;20417;-74
2022/12/27 10:30:55;;;;;;;3.53;1.10;;;5.20;99.90;;;;;;5002809;28;20911;-73
2022/12/27 10:33:30;;;;;;;7.33;1.20;;;5.40;99.90;;;;;;5028449;28;20483;-74
2022/12/27 10:35:56;;;;;;;2.10;0.90;;;5.60;99.90;;;;;;5032898;28;20264;-74
2022/12/27 10:38:23;;;;;;;1.70;0.80;;;5.60;99.90;;;;;;5019262;28;20429;-74
2022/12/27 10:41:12;;;;;;;2.13;0.90;;;5.60;99.90;;;;;;5027001;28;20675;-74
2022/12/27 10:43:43;;;;;;;1.47;0.80;;;5.70;99.90;;;;;;5006447;28;20437;-74
2022/12/27 10:46:21;;;;;;;5.30;1.50;;;5.90;99.90;;;;;;5031515;28;20862;-74
2022/12/27 10:48:55;;;;;;;2.00;1.00;;;5.90;99.90;;;;;;5021612;28;20421;-74
2022/12/27 10:51:22;;;;;;;1.30;0.60;;;5.80;99.90;;;;;;5015692;28;20899;-74
2022/12/27 10:53:48;;;;;;;6.90;1.43;;;5.80;99.90;;;;;;5018193;28;20406;-74
2022/12/27 10:56:15;;;;;;;3.00;1.07;;;5.90;99.90;;;;;;5029166;28;20539;-74
2022/12/27 10:58:41;;;;;;;2.33;1.23;;;6.00;99.90;;;;;;5031193;28;20670;-74
2022/12/27 11:01:33;;;;;;;2.80;1.27;;;6.10;99.90;;;;;;5031879;28;20488;-74
2022/12/27 11:04:08;;;;;;;1.63;1.00;;;6.10;99.90;;;;;;5019869;28;20185;-74
2022/12/27 11:06:33;;;;;;;2.10;1.00;;;6.20;99.90;;;;;;5032224;28;20428;-74
2022/12/27 11:09:16;;;;;;;1.57;1.03;;;6.20;99.90;;;;;;5031065;28;20409;-74
2022/12/27 11:11:42;;;;;;;2.60;1.00;;;6.20;99.90;;;;;;5020175;28;20666;-75
2022/12/27 11:14:16;;;;;;;2.63;0.80;;;6.20;99.90;;;;;;5027350;28;20411;-74
2022/12/27 11:16:43;;;;;;;2.00;0.80;;;6.10;99.90;;;;;;5018233;28;20175;-74
2022/12/27 11:19:27;;;;;;;1.67;0.83;;;6.10;99.90;;;;;;5030369;28;20417;-75
2022/12/27 11:21:54;;;;;;;2.70;0.90;;;6.20;99.90;;;;;;5027874;28;20444;-74
2022/12/27 11:24:21;;;;;;;2.70;1.50;;;6.10;99.90;;;;;;5031822;28;20417;-74
2022/12/27 11:26:53;;;;;;;2.90;1.30;;;6.20;99.90;;;;;;5031556;28;20478;-75
2022/12/27 11:29:23;;;;;;;1.30;0.70;;;6.20;99.90;;;;;;5031600;28;20520;-74
2022/12/27 11:31:50;;;;;;;3.93;1.53;;;6.30;99.90;;;;;;5031299;28;20418;-74
2022/12/27 11:34:33;;;;;;;4.40;1.30;;;6.30;99.90;;;;;;5030709;28;20508;-75
2022/12/27 11:37:14;;;;;;;2.50;1.00;;;6.20;99.90;;;;;;5018461;28;20413;-74
2022/12/27 11:39:48;;;;;;;4.80;1.20;;;6.10;99.90;;;;;;5031144;28;20452;-74
2022/12/27 11:42:37;;;;;;;1.93;1.23;;;6.00;99.90;;;;;;5030699;28;20444;-74
2022/12/27 11:45:13;;;;;;;3.10;1.20;;;5.90;99.90;;;;;;5030936;28;20409;-74
2022/12/27 11:47:41;;;;;;;4.40;0.93;;;5.90;99.90;;;;;;5019551;28;20520;-74
2022/12/27 11:50:13;;;;;;;4.00;1.47;;;5.90;99.90;;;;;;5030265;28;20417;-74
2022/12/27 11:53:19;;;;;;;2.40;1.00;;;5.80;99.90;;;;;;5019784;28;20418;-74
2022/12/27 11:56:10;;;;;;;3.00;1.57;;;5.90;99.90;;;;;;4949947;29;20448;-74
2022/12/27 11:58:53;;;;;;;2.40;1.47;;;5.90;99.90;;;;;;5020523;28;20940;-74
2022/12/27 12:01:45;;;;;;;2.93;1.27;;;6.00;99.90;;;;;;5029787;28;20453;-74
2022/12/27 12:04:16;;;;;;;1.93;0.87;;;6.10;99.90;;;;;;5016057;28;20430;-75
2022/12/27 12:06:59;;;;;;;2.60;1.00;;;6.30;99.90;;;;;;5021597;28;20900;-74
2022/12/27 12:09:30;;;;;;;2.63;1.20;;;6.40;99.90;;;;;;5031528;28;20502;-74
2022/12/27 12:12:19;;;;;;;3.87;1.00;;;6.50;99.90;;;;;;5030281;28;20471;-75
2022/12/27 12:14:45;;;;;;;2.30;1.20;;;6.50;99.90;;;;;;5021335;28;20406;-75
2022/12/27 12:17:37;;;;;;;2.17;0.87;;;6.50;99.90;;;;;;5011352;28;20930;-75
2022/12/27 12:20:21;;;;;;;5.30;0.90;;;6.50;99.90;;;;;;5011225;28;20648;-75
2022/12/27 12:23:11;;;;;;;3.83;1.00;;;6.50;99.90;;;;;;4999340;28;20425;-74
2022/12/27 12:25:58;;;;;;;1.40;0.70;;;6.50;99.90;;;;;;5010733;28;20425;-75
2022/12/27 12:28:45;;;;;;;1.50;0.70;;;6.50;99.90;;;;;;5024524;28;20464;-75
2022/12/27 12:31:32;;;;;;;4.53;1.07;;;6.60;99.90;;;;;;5001557;28;20414;-76
2022/12/27 12:34:25;;;;;;;1.97;0.80;;;6.70;99.90;;;;;;5010882;28;20425;-76
2022/12/27 12:37:07;;;;;;;2.37;1.00;;;6.90;99.90;;;;;;5018413;28;20414;-76
2022/12/27 12:40:00;;;;;;;2.27;1.33;;;6.80;99.90;;;;;;5016698;28;20422;-76
2022/12/27 12:42:26;;;;;;;2.70;1.03;;;6.80;99.90;;;;;;5018822;28;20460;-76
2022/12/27 12:45:22;;;;;;;3.43;1.10;;;6.90;99.90;;;;;;5019059;28;20415;-76
2022/12/27 12:48:06;;;;;;;2.10;1.30;;;7.00;99.90;;;;;;5018172;28;20296;-75
2022/12/27 12:51:05;;;;;;;2.37;1.47;;;7.00;99.90;;;;;;5009608;28;20418;-76
2022/12/27 12:53:52;;;;;;;5.70;1.80;;;7.00;99.90;;;;;;5011194;28;20409;-76
2022/12/27 12:56:40;;;;;;;3.40;1.47;;;7.00;99.90;;;;;;5031474;28;20497;-75
2022/12/27 12:59:24;;;;;;;2.50;1.40;;;6.90;99.90;;;;;;5025226;28;20529;-76
2022/12/27 13:02:09;;;;;;;1.90;0.90;;;6.80;99.90;;;;;;5021365;28;20420;-76
2022/12/27 13:05:12;;;;;;;4.60;1.03;;;6.60;99.90;;;;;;5023023;28;20402;-75
2022/12/27 13:08:01;;;;;;;4.13;1.10;;;6.60;99.90;;;;;;5017675;28;20429;-77
2022/12/27 13:10:52;;;;;;;2.73;0.97;;;6.60;99.90;;;;;;5025235;28;20425;-75
2022/12/27 13:13:31;;;;;;;2.57;1.20;;;6.60;99.90;;;;;;5017991;28;20410;-77
2022/12/27 13:16:15;;;;;;;3.30;1.50;;;6.50;99.90;;;;;;5017492;28;20433;-76
2022/12/27 13:19:12;;;;;;;4.80;0.80;;;6.50;99.90;;;;;;4999548;28;20403;-76
2022/12/27 13:21:58;;;;;;;6.20;1.50;;;6.40;99.90;;;;;;5028991;28;20535;-76
2022/12/27 13:24:42;;;;;;;3.00;1.57;;;6.30;99.90;;;;;;5005726;28;20508;-75
2022/12/27 13:27:08;;;;;;;6.47;1.33;;;6.30;99.90;;;;;;5020999;28;20409;-76
2022/12/27 13:29:56;;;;;;;5.20;1.50;;;6.30;99.90;;;;;;5023652;28;21042;-76
2022/12/27 13:32:22;;;;;;;2.33;1.00;;;6.20;99.90;;;;;;5023097;28;20182;-76
2022/12/27 13:35:21;;;;;;;5.53;1.00;;;6.20;99.90;;;;;;5021151;28;20463;-77
2022/12/27 13:38:08;;;;;;;2.50;1.27;;;6.10;99.90;;;;;;5016540;28;20237;-77
2022/12/27 13:40:44;;;;;;;2.37;1.03;;;6.10;99.90;;;;;;5005554;28;20458;-77
2022/12/27 13:43:28;;;;;;;9.73;1.20;;;6.10;99.90;;;;;;5029242;28;20449;-77
2022/12/27 13:46:10;;;;;;;6.77;1.60;;;6.10;99.90;;;;;;5028667;28;20886;-77
2022/12/27 13:48:53;;;;;;;1.80;0.83;;;6.00;99.90;;;;;;5035284;28;20419;-75
2022/12/27 13:51:48;;;;;;;4.03;1.00;;;5.80;99.90;;;;;;5021833;28;20421;-74
2022/12/27 13:54:39;;;;;;;1.80;0.93;;;5.80;99.90;;;;;;5021244;28;20418;-74
2022/12/27 13:57:35;;;;;;;2.27;1.10;;;5.70;99.90;;;;;;5025980;28;20441;-75
2022/12/27 14:00:13;;;;;;;1.87;0.80;;;5.60;99.90;;;;;;5025729;28;20454;-75
2022/12/27 14:03:03;;;;;;;1.33;0.60;;;5.60;99.90;;;;;;5014634;28;20743;-76
2022/12/27 14:05:40;;;;;;;1.30;0.70;;;5.50;99.90;;;;;;5015150;28;20445;-76
2022/12/27 14:08:20;;;;;;;1.20;0.50;;;5.50;99.90;;;;;;5015055;28;20410;-76
2022/12/27 14:10:50;;;;;;;2.03;0.70;;;5.50;99.90;;;;;;5014634;28;20410;-77
2022/12/27 14:13:37;;;;;;;1.50;0.60;;;5.40;99.90;;;;;;5025150;28;20514;-77
2022/12/27 14:16:30;;;;;;;1.30;0.77;;;5.40;99.90;;;;;;5015274;28;20440;-76
2022/12/27 14:19:08;;;;;;;4.40;1.17;;;5.40;99.90;;;;;;5019122;28;20417;-77
2022/12/27 14:21:57;;;;;;;2.33;0.77;;;5.30;99.90;;;;;;5034880;28;20543;-76
2022/12/27 14:24:52;;;;;;;1.70;0.70;;;5.30;99.90;;;;;;5027307;28;20414;-76
2022/12/27 14:27:55;;;;;;;3.00;1.13;;;5.20;99.90;;;;;;5015167;28;20464;-77
2022/12/27 14:30:30;;;;;;;3.83;1.60;;;5.20;99.90;;;;;;5032545;28;20452;-77
2022/12/27 14:33:21;;;;;;;3.07;1.03;;;5.10;99.90;;;;;;5022847;28;20437;-77
2022/12/27 14:35:55;;;;;;;1.63;0.60;;;5.10;99.90;;;;;;5023165;28;20470;-77
2022/12/27 14:38:45;;;;;;;5.50;0.80;;;5.10;99.90;;;;;;5018344;28;20869;-76
2022/12/27 14:41:41;;;;;;;2.27;1.03;;;5.00;99.90;;;;;;5026430;28;20449;-77
2022/12/27 14:44:44;;;;;;;2.43;1.10;;;4.90;99.90;;;;;;5023979;28;20408;-76
2022/12/27 14:47:41;;;;;;;2.03;0.93;;;4.90;99.90;;;;;;5012181;28;20417;-75
2022/12/27 14:50:35;;;;;;;4.50;0.77;;;4.90;99.90;;;;;;5014775;28;20950;-74
2022/12/27 14:53:31;;;;;;;2.30;0.70;;;4.80;99.90;;;;;;5007159;28;20886;-75
2022/12/27 14:56:13;;;;;;;5.23;0.97;;;4.70;99.90;;;;;;5029235;28;20563;-75
2022/12/27 14:59:02;;;;;;;1.40;0.70;;;4.70;99.90;;;;;;5022913;28;20487;-75
2022/12/27 15:01:47;;;;;;;1.87;1.10;;;4.60;99.90;;;;;;5014267;28;20528;-75
2022/12/27 15:04:34;;;;;;;3.00;1.07;;;4.60;99.90;;;;;;5027755;28;20485;-74
2022/12/27 15:07:03;;;;;;;1.73;0.80;;;4.50;99.90;;;;;;5026996;28;20439;-74
2022/12/27 15:09:28;;;;;;;2.23;1.10;;;4.50;99.90;;;;;;5014838;28;20422;-76